Station PPXA2 - Point Pigot Image indicating link to RSS feed of recent meteorological observations for station PPXA2


Conditions at PPXA2 as of
(2:52 am AKDT)
1052 GMT on 09/01/2026:
     

Click on the graph icon in the table below to see a time series plot of the last five days of that observation.

5-day plot - Wind Direction Wind Direction (WDIR): W ( 280 deg true )
5-day plot - Wind Speed Wind Speed (WSPD): 15.0 kts
5-day plot - Wind Gust Wind Gust (GST): 22.0 kts
5-day plot - Atmospheric Pressure Atmospheric Pressure (PRES):29.62 in
5-day plot - Air Temperature Air Temperature (ATMP): 54.9 °F
5-day plot - Dew Point Dew Point (DEWP): 37.6 °F
5-day plot - Wind Speed at 10 Meters Wind Speed at 10 meters (WSPD10M): 13.6 kts
5-day plot - Wind Speed at 20 Meters Wind Speed at 20 meters (WSPD20M): 15.5 kts
5-day plot -  Wind Speed, Wind Gust and Atmospheric Pressure Combined plot of Wind Speed, Gust, and Air Pressure
Previous observations
TIME
(AKDT)
5-day plot - Wind Direction
WDIR
 
5-day plot - Wind Speed
WSPD
kts
5-day plot - Wind Gust
GST
kts
5-day plot - Wave Height
WVHT
ft
5-day plot - Dominant Wave Period
DPD
sec
5-day plot - Average Wave Period
APD
sec
5-day plot - Mean Wave Direction
MWD
 
5-day plot - Atmospheric Pressure
PRES
in
5-day plot - Pressure Tendency
PTDY
in
5-day plot - Air Temperature
ATMP
°F
5-day plot - Water Temperature
WTMP
°F
5-day plot - Dew Point
DEWP
°F
5-day plot - Salinity
SAL
psu
5-day plot - Visibility
VIS
nmi
5-day plot - Tide (above MLLW)
TIDE
ft
2026-09-01 02:42 am W 15.0 20.0----29.62- 54.9- 39.0---
2026-09-01 02:32 am W 17.1 24.1----29.62- 55.0- 37.2---
2026-09-01 02:22 am W 18.1 24.1----29.62- 54.9- 38.5---
2026-09-01 02:12 am W 19.0 25.1----29.60- 55.0- 39.2---
2026-09-01 02:02 am W 18.1 22.9----29.61- 55.0- 37.8---
2026-09-01 01:52 am W 17.1 24.1----29.61- 55.2- 38.3---
2026-09-01 01:42 am W 18.1 25.1----29.61- 55.4- 37.6---
2026-09-01 01:32 am W 17.1 22.9----29.60- 55.4- 37.6---
2026-09-01 01:22 am W 13.0 19.0----29.61- 55.2- 37.9---
2026-09-01 01:12 am W 13.0 19.0----29.60- 55.0- 38.7---
2026-09-01 01:02 am W 8.9 13.0----29.60- 55.4- 38.5---
2026-09-01 12:52 am W 11.1 18.1----29.60- 55.6- 37.8---
2026-09-01 12:42 am W 11.1 18.1----29.60- 55.8- 38.3---
2026-09-01 12:32 am W 15.0 20.0----29.59- 55.8- 37.4---
2026-09-01 12:22 am W 14.0 25.1----29.59- 55.8- 37.4---
2026-09-01 12:12 am W 15.9 24.1----29.58- 55.8- 37.9---
2026-09-01 12:02 am W 15.0 22.0----29.58- 55.8- 37.9---
2026-08-31 11:52 pm W 19.0 25.1----29.58- 55.9- 37.0---
2026-08-31 11:42 pm W 17.1 24.1----29.57- 55.9- 38.1---
2026-08-31 11:32 pm W 15.9 21.0----29.58- 55.9- 37.6---
2026-08-31 11:22 pm W 17.1 22.9----29.57- 56.1- 38.3---
2026-08-31 11:12 pm W 19.0 26.0----29.57- 56.3- 37.9---
2026-08-31 11:02 pm W 21.0 27.0----29.56- 56.3- 37.9---
2026-08-31 10:52 pm W 21.0 28.0----29.55- 56.5- 39.6---
2026-08-31 10:42 pm W 21.0 27.0----29.55- 56.1- 37.8---
2026-08-31 10:32 pm W 21.0 27.0----29.54- 56.3- 37.9---
2026-08-31 10:22 pm W 22.0 28.9----29.54- 56.5- 37.6---
2026-08-31 10:12 pm W 20.0 25.1----29.53- 56.3- 38.8---
2026-08-31 10:02 pm W 22.0 29.9----29.52- 56.5- 39.6---
2026-08-31 09:52 pm W 20.0 26.0----29.52- 56.1- 38.3---
2026-08-31 09:42 pm W 22.0 28.9----29.52- 56.3- 40.3---
2026-08-31 09:32 pm W 21.0 27.0----29.52- 56.3- 39.4---
2026-08-31 09:22 pm W 22.0 28.0----29.52- 56.5- 39.6---
2026-08-31 09:12 pm W 20.0 27.0----29.52- 56.3- 40.3---
2026-08-31 09:02 pm W 20.0 25.1----29.51- 56.3- 40.8---
2026-08-31 08:52 pm W 20.0 26.0----29.51- 56.3- 40.8---
2026-08-31 08:42 pm W 20.0 25.1----29.51- 56.3- 38.8---
2026-08-31 08:32 pm W 21.0 26.0----29.51- 56.3- 40.3---
2026-08-31 08:22 pm W 22.0 27.0----29.50- 56.3- 39.9---
2026-08-31 08:12 pm W 22.9 29.9----29.50- 56.3- 39.4---
2026-08-31 08:02 pm W 22.9 29.9----29.49- 56.7- 40.3---
2026-08-31 07:52 pm W 24.1 28.9----29.49- 56.7- 39.7---
2026-08-31 07:42 pm W 21.0 28.9----29.49- 56.5- 39.0---
2026-08-31 07:32 pm W 21.0 26.0----29.49- 56.3- 41.2---
2026-08-31 07:22 pm W 22.9 28.9----29.49- 55.9- 41.4---
2026-08-31 07:12 pm W 22.9 34.0----29.47- 55.8- 40.3---
2026-08-31 07:02 pm W 24.1 33.0----29.47- 55.8- 41.2---
2026-08-31 06:52 pm W 22.9 32.1----29.47- 55.9- 39.6---
2026-08-31 06:42 pm W 24.1 29.9----29.46- 55.9- 39.6---
2026-08-31 06:32 pm W 24.1 32.1----29.45- 55.8- 39.4---
2026-08-31 06:22 pm W 26.0 33.0----29.45- 55.4- 41.4---
2026-08-31 06:12 pm W 27.0 36.9----29.44- 55.0- 39.6---
2026-08-31 06:02 pm W 27.0 35.9----29.44- 54.9- 42.1---
2026-08-31 05:52 pm W 28.0 35.9----29.43- 55.0- 40.5---
2026-08-31 05:42 pm W 27.0 39.0----29.43- 54.9- 39.4---
2026-08-31 05:32 pm W 22.0 28.0----29.43- 54.7- 40.6---
2026-08-31 05:22 pmWSW 22.9 33.0----29.43- 54.9- 40.8---
2026-08-31 05:12 pm W 24.1 31.1----29.43- 54.5- 39.6---
2026-08-31 05:02 pm W 22.9 31.1----29.44- 54.3- 40.3---
2026-08-31 04:52 pm W 26.0 35.0----29.44- 54.1- 40.6---
2026-08-31 04:42 pm W 25.1 34.0----29.43- 53.8- 41.0---
2026-08-31 04:32 pm W 28.0 39.0----29.43- 53.4- 40.3---
2026-08-31 04:22 pm W 26.0 36.9----29.42- 53.4- 40.3---
2026-08-31 04:12 pm W 27.0 35.9----29.42- 53.1- 39.9---
2026-08-31 04:02 pm W 28.0 36.9----29.42- 53.1- 39.0---
2026-08-31 03:52 pm W 27.0 35.0----29.42- 52.9- 39.4---
2026-08-31 03:12 pm W 29.9 40.0----29.40- 52.0- 39.4---
2026-08-31 03:02 pm W 28.9 39.0----29.41- 51.8- 39.2---
2026-08-31 02:52 pm W 28.9 39.0----29.41- 51.6- 39.0---
2026-08-31 02:42 pm W 27.0 40.0----29.40- 51.4- 38.8---
2026-08-31 02:32 pm W 28.9 36.9----29.40- 51.3- 38.3---
2026-08-31 02:22 pm W 28.9 36.9----29.41- 51.4- 39.2---
2026-08-31 02:12 pm W 28.0 35.9----29.41- 51.6- 39.0---
2026-08-31 02:02 pm W 25.1 32.1----29.41- 51.6- 38.7---
2026-08-31 01:52 pm W 28.0 35.0----29.41- 51.8- 38.8---
2026-08-31 01:42 pm W 26.0 34.0----29.41- 51.6- 37.4---
2026-08-31 01:32 pm W 26.0 34.0----29.41- 51.4- 37.6---
2026-08-31 01:22 pm W 26.0 33.0----29.41- 51.6- 36.0---
2026-08-31 01:12 pm W 26.0 35.0----29.41- 51.3- 36.5---
2026-08-31 01:02 pm W 26.0 34.0----29.41- 51.1- 38.8---
2026-08-31 12:52 pm W 26.0 34.0----29.41- 51.3- 37.4---
2026-08-31 12:42 pm W 24.1 32.1----29.41- 51.1- 36.9---
2026-08-31 12:32 pm W 24.1 34.0----29.42- 51.1- 36.9---
2026-08-31 12:22 pm W 26.0 33.0----29.41- 51.1- 36.0---
2026-08-31 12:12 pm W 27.0 34.0----29.41- 51.1- 35.4---
2026-08-31 12:02 pm W 25.1 34.0----29.42- 51.3- 34.7---
2026-08-31 11:52 am W 28.0 35.0----29.42- 50.9- 35.2---
2026-08-31 11:42 am W 28.0 35.0----29.42- 50.9- 36.7---
2026-08-31 11:32 am W 26.0 34.0----29.42- 51.1- 38.1---
2026-08-31 11:22 am W 27.0 34.0----29.43- 50.9- 37.9---
2026-08-31 11:12 am W 27.0 35.0----29.42- 50.7- 37.4---
2026-08-31 11:02 am W 27.0 33.0----29.42- 50.9- 37.9---
2026-08-31 10:52 am W 26.0 34.0----29.43- 51.1- 38.5---
2026-08-31 10:42 am W 26.0 35.9----29.43- 50.7- 38.1---
2026-08-31 10:32 am W 25.1 33.0----29.44- 50.4- 38.7---
2026-08-31 10:22 am W 25.1 31.1----29.44- 50.0- 39.9---
2026-08-31 10:12 am W 25.1 33.0----29.44- 49.5- 39.0---
2026-08-31 10:02 am W 25.1 34.0----29.44- 49.5- 40.5---
2026-08-31 09:52 am W 22.9 33.0----29.45- 49.3- 40.3---
2026-08-31 09:42 am W 20.0 28.0----29.46- 49.5- 40.1---
2026-08-31 09:32 am W 20.0 26.0----29.46- 49.3- 40.3---
2026-08-31 09:22 am W 22.0 28.9----29.46- 48.9- 40.6---
2026-08-31 09:12 am W 22.9 31.1----29.45- 48.7- 40.5---
2026-08-31 09:02 am W 25.1 29.9----29.45- 48.7- 40.5---
2026-08-31 08:52 am W 24.1 31.1----29.47- 49.3- 41.4---
2026-08-31 08:42 am W 22.0 28.0----29.46- 49.8- 43.2---
2026-08-31 08:32 amWSW 8.0 20.0----29.48- 50.0- 46.9---
2026-08-31 08:22 amWSW 2.9 5.1----29.49- 50.7- 49.1---
2026-08-31 08:12 am NW 1.9 4.1----29.49- 50.0- 49.1---
2026-08-31 08:02 amWNW 1.0 2.9----29.49- 48.7- 47.8---
2026-08-31 07:52 am N 1.0 5.1----29.50- 47.8- 46.9---
2026-08-31 07:42 am NE 4.1 7.0----29.50- 48.2- 47.7---
2026-08-31 07:32 am NE 2.9 7.0----29.50- 48.4- 47.8---
2026-08-31 07:22 am NE 4.1 8.0----29.50- 48.2- 47.3---
2026-08-31 07:12 am NE 2.9 6.0----29.51- 48.2- 47.1---
2026-08-31 07:02 am N 1.9 5.1----29.50- 47.8- 46.8---
2026-08-31 06:52 amNNE 2.9 12.0----29.50- 48.2- 47.1---
2026-08-31 06:42 am NE 8.0 13.0----29.51- 49.1- 47.7---
2026-08-31 06:32 amNNW 1.9 6.0----29.51- 48.0- 46.6---
2026-08-31 06:22 am NW 1.0 4.1----29.52- 47.8- 46.8---
2026-08-31 06:12 am NE 1.9 4.1----29.52- 48.4- 47.3---
2026-08-31 06:02 amENE 1.9 4.1----29.53- 47.7- 46.6---
2026-08-31 05:52 am- 0.0 1.9----29.54- 47.5- 46.4---
2026-08-31 05:42 amNNW 1.0 2.9----29.54- 47.5- 46.4---
2026-08-31 05:32 amNNW 1.9 4.1----29.54- 47.5- 46.4---
2026-08-31 05:12 amNNE 1.9 4.1----29.55- 47.8- 46.8---
2026-08-31 05:02 amNNW 1.9 5.1----29.56- 47.8- 46.8---
2026-08-31 04:52 amNNE 1.9 6.0----29.57- 48.2- 47.1---
2026-08-31 04:42 amWNW 1.9 4.1----29.57- 47.7- 46.6---
2026-08-31 04:32 amWNW 1.9 2.9----29.57- 46.8- 45.3---
2026-08-31 04:22 amWNW 1.0 1.9----29.58- 46.9- 45.5---
2026-08-31 04:12 amNNE 1.9 2.9----29.58- 47.1- 45.7---
2026-08-31 04:02 am NW 1.0 2.9----29.58- 47.3- 45.9---
2026-08-31 03:52 am NW 1.9 6.0----29.59- 47.3- 45.7---
2026-08-31 03:42 amNNE 1.0 4.1----29.59- 48.0- 46.4---
2026-08-31 03:32 am NW 1.0 2.9----29.60- 47.8- 45.9---
2026-08-31 03:22 amENE 1.0 2.9----29.60- 48.4- 46.4---
2026-08-31 03:12 am N 1.0 4.1----29.61- 48.7- 46.8---
2026-08-31 03:02 am NE 2.9 8.0----29.61- 49.8- 47.8---
2026-08-31 02:52 am NE 1.9 9.9----29.62- 50.0- 46.9---